sensor_id;sensor_type;location;lat;lon;timestamp;P1;durP1;ratioP1;P2;durP2;ratioP2
29938;SDS011;16799;50.844;5.304;2022-11-20T00:00:03;38.90;;;20.43;;
29938;SDS011;16799;50.844;5.304;2022-11-20T00:02:29;41.17;;;21.87;;
29938;SDS011;16799;50.844;5.304;2022-11-20T00:04:55;38.60;;;21.40;;
29938;SDS011;16799;50.844;5.304;2022-11-20T00:07:20;42.63;;;24.00;;
29938;SDS011;16799;50.844;5.304;2022-11-20T00:09:46;34.77;;;20.97;;
29938;SDS011;16799;50.844;5.304;2022-11-20T00:12:12;33.93;;;22.10;;
29938;SDS011;16799;50.844;5.304;2022-11-20T00:14:38;39.77;;;22.60;;
29938;SDS011;16799;50.844;5.304;2022-11-20T00:17:04;38.53;;;19.33;;
29938;SDS011;16799;50.844;5.304;2022-11-20T00:19:29;35.13;;;20.70;;
29938;SDS011;16799;50.844;5.304;2022-11-20T00:21:55;32.07;;;20.33;;
29938;SDS011;16799;50.844;5.304;2022-11-20T00:24:20;37.37;;;21.33;;
29938;SDS011;16799;50.844;5.304;2022-11-20T00:26:46;40.70;;;22.17;;
29938;SDS011;16799;50.844;5.304;2022-11-20T00:29:12;31.30;;;19.20;;
29938;SDS011;16799;50.844;5.304;2022-11-20T00:31:37;37.73;;;21.53;;
29938;SDS011;16799;50.844;5.304;2022-11-20T00:34:03;35.80;;;21.57;;
29938;SDS011;16799;50.844;5.304;2022-11-20T00:36:31;33.80;;;21.53;;
29938;SDS011;16799;50.844;5.304;2022-11-20T00:38:58;36.63;;;21.10;;
29938;SDS011;16799;50.844;5.304;2022-11-20T00:41:25;35.13;;;22.07;;
29938;SDS011;16799;50.844;5.304;2022-11-20T00:43:52;31.00;;;19.70;;
29938;SDS011;16799;50.844;5.304;2022-11-20T00:46:20;37.23;;;22.70;;
29938;SDS011;16799;50.844;5.304;2022-11-20T00:48:47;38.00;;;23.20;;
29938;SDS011;16799;50.844;5.304;2022-11-20T00:51:14;35.97;;;21.80;;
29938;SDS011;16799;50.844;5.304;2022-11-20T00:53:42;37.93;;;21.73;;
29938;SDS011;16799;50.844;5.304;2022-11-20T00:56:12;33.50;;;20.37;;
29938;SDS011;16799;50.844;5.304;2022-11-20T00:58:39;31.93;;;21.80;;
29938;SDS011;16799;50.844;5.304;2022-11-20T01:03:40;29.00;;;19.77;;
29938;SDS011;16799;50.844;5.304;2022-11-20T01:06:09;37.13;;;21.40;;
29938;SDS011;16799;50.844;5.304;2022-11-20T01:08:36;35.73;;;20.27;;
29938;SDS011;16799;50.844;5.304;2022-11-20T01:11:09;36.50;;;21.00;;
29938;SDS011;16799;50.844;5.304;2022-11-20T01:13:37;32.50;;;20.70;;
29938;SDS011;16799;50.844;5.304;2022-11-20T01:16:11;36.80;;;22.30;;
29938;SDS011;16799;50.844;5.304;2022-11-20T01:18:42;38.27;;;21.80;;
29938;SDS011;16799;50.844;5.304;2022-11-20T01:21:14;37.10;;;21.60;;
29938;SDS011;16799;50.844;5.304;2022-11-20T01:23:43;32.43;;;19.57;;
29938;SDS011;16799;50.844;5.304;2022-11-20T01:26:10;36.97;;;22.00;;
29938;SDS011;16799;50.844;5.304;2022-11-20T01:28:38;33.83;;;20.37;;
29938;SDS011;16799;50.844;5.304;2022-11-20T01:31:11;35.23;;;19.30;;
29938;SDS011;16799;50.844;5.304;2022-11-20T01:33:47;36.70;;;18.60;;
29938;SDS011;16799;50.844;5.304;2022-11-20T01:36:15;31.93;;;20.23;;
29938;SDS011;16799;50.844;5.304;2022-11-20T01:38:41;34.60;;;22.13;;
29938;SDS011;16799;50.844;5.304;2022-11-20T01:41:08;38.87;;;19.73;;
29938;SDS011;16799;50.844;5.304;2022-11-20T01:43:34;35.53;;;21.33;;
29938;SDS011;16799;50.844;5.304;2022-11-20T01:49:14;30.60;;;19.40;;
29938;SDS011;16799;50.844;5.304;2022-11-20T01:51:40;45.90;;;21.73;;
29938;SDS011;16799;50.844;5.304;2022-11-20T01:54:17;45.83;;;23.37;;
29938;SDS011;16799;50.844;5.304;2022-11-20T01:56:48;37.63;;;19.17;;
29938;SDS011;16799;50.844;5.304;2022-11-20T01:59:17;29.63;;;19.23;;
29938;SDS011;16799;50.844;5.304;2022-11-20T02:01:45;39.53;;;21.40;;
29938;SDS011;16799;50.844;5.304;2022-11-20T02:04:11;35.93;;;21.10;;
29938;SDS011;16799;50.844;5.304;2022-11-20T02:06:46;34.43;;;20.27;;
29938;SDS011;16799;50.844;5.304;2022-11-20T02:09:15;34.57;;;20.40;;
29938;SDS011;16799;50.844;5.304;2022-11-20T02:11:41;33.07;;;20.00;;
29938;SDS011;16799;50.844;5.304;2022-11-20T02:14:07;34.00;;;22.00;;
29938;SDS011;16799;50.844;5.304;2022-11-20T02:16:34;37.07;;;19.47;;
29938;SDS011;16799;50.844;5.304;2022-11-20T02:19:09;36.97;;;19.90;;
29938;SDS011;16799;50.844;5.304;2022-11-20T02:24:21;37.83;;;21.93;;
29938;SDS011;16799;50.844;5.304;2022-11-20T02:26:54;39.73;;;20.90;;
29938;SDS011;16799;50.844;5.304;2022-11-20T02:32:23;35.43;;;18.77;;
29938;SDS011;16799;50.844;5.304;2022-11-20T02:34:51;33.93;;;19.50;;
29938;SDS011;16799;50.844;5.304;2022-11-20T02:37:17;35.43;;;19.97;;
29938;SDS011;16799;50.844;5.304;2022-11-20T02:39:44;36.40;;;19.80;;
29938;SDS011;16799;50.844;5.304;2022-11-20T02:42:12;37.23;;;20.70;;
29938;SDS011;16799;50.844;5.304;2022-11-20T02:44:38;34.70;;;20.50;;
29938;SDS011;16799;50.844;5.304;2022-11-20T02:47:04;36.13;;;19.37;;
29938;SDS011;16799;50.844;5.304;2022-11-20T02:49:30;31.43;;;19.50;;
29938;SDS011;16799;50.844;5.304;2022-11-20T02:51:56;38.30;;;21.63;;
29938;SDS011;16799;50.844;5.304;2022-11-20T02:54:21;33.10;;;20.17;;
29938;SDS011;16799;50.844;5.304;2022-11-20T02:56:47;38.07;;;21.30;;
29938;SDS011;16799;50.844;5.304;2022-11-20T02:59:13;34.03;;;20.17;;
29938;SDS011;16799;50.844;5.304;2022-11-20T03:01:38;33.47;;;19.60;;
29938;SDS011;16799;50.844;5.304;2022-11-20T03:04:04;38.27;;;20.77;;
29938;SDS011;16799;50.844;5.304;2022-11-20T03:06:30;41.50;;;21.90;;
29938;SDS011;16799;50.844;5.304;2022-11-20T03:08:55;34.43;;;20.80;;
29938;SDS011;16799;50.844;5.304;2022-11-20T03:11:21;35.90;;;20.93;;
29938;SDS011;16799;50.844;5.304;2022-11-20T03:13:47;38.00;;;22.07;;
29938;SDS011;16799;50.844;5.304;2022-11-20T03:16:13;40.37;;;19.97;;
29938;SDS011;16799;50.844;5.304;2022-11-20T03:18:41;35.60;;;22.37;;
29938;SDS011;16799;50.844;5.304;2022-11-20T03:21:08;40.70;;;21.40;;
29938;SDS011;16799;50.844;5.304;2022-11-20T03:23:34;35.73;;;19.40;;
29938;SDS011;16799;50.844;5.304;2022-11-20T03:26:17;41.23;;;21.00;;
29938;SDS011;16799;50.844;5.304;2022-11-20T03:28:49;40.23;;;21.97;;
29938;SDS011;16799;50.844;5.304;2022-11-20T03:31:21;49.27;;;21.97;;
29938;SDS011;16799;50.844;5.304;2022-11-20T03:33:48;36.97;;;21.80;;
29938;SDS011;16799;50.844;5.304;2022-11-20T03:36:14;41.40;;;20.90;;
29938;SDS011;16799;50.844;5.304;2022-11-20T03:38:41;49.80;;;24.97;;
29938;SDS011;16799;50.844;5.304;2022-11-20T03:41:07;39.20;;;22.90;;
29938;SDS011;16799;50.844;5.304;2022-11-20T03:43:38;42.27;;;23.83;;
29938;SDS011;16799;50.844;5.304;2022-11-20T03:46:04;37.10;;;21.23;;
29938;SDS011;16799;50.844;5.304;2022-11-20T03:48:30;38.13;;;23.07;;
29938;SDS011;16799;50.844;5.304;2022-11-20T03:53:35;56.93;;;25.30;;
29938;SDS011;16799;50.844;5.304;2022-11-20T03:56:01;55.30;;;25.10;;
29938;SDS011;16799;50.844;5.304;2022-11-20T03:58:27;53.40;;;25.40;;
29938;SDS011;16799;50.844;5.304;2022-11-20T04:00:52;49.83;;;22.57;;
29938;SDS011;16799;50.844;5.304;2022-11-20T04:03:18;54.90;;;27.87;;
29938;SDS011;16799;50.844;5.304;2022-11-20T04:05:44;58.53;;;25.70;;
29938;SDS011;16799;50.844;5.304;2022-11-20T04:08:09;46.07;;;24.97;;
29938;SDS011;16799;50.844;5.304;2022-11-20T04:10:35;47.83;;;25.00;;
29938;SDS011;16799;50.844;5.304;2022-11-20T04:13:00;52.47;;;26.30;;
29938;SDS011;16799;50.844;5.304;2022-11-20T04:15:26;68.63;;;29.13;;
29938;SDS011;16799;50.844;5.304;2022-11-20T04:17:52;54.63;;;28.70;;
29938;SDS011;16799;50.844;5.304;2022-11-20T04:20:19;53.20;;;26.60;;
29938;SDS011;16799;50.844;5.304;2022-11-20T04:22:45;53.83;;;24.87;;
29938;SDS011;16799;50.844;5.304;2022-11-20T04:25:11;55.07;;;28.17;;
29938;SDS011;16799;50.844;5.304;2022-11-20T04:27:36;50.33;;;26.07;;
29938;SDS011;16799;50.844;5.304;2022-11-20T04:30:02;58.67;;;26.63;;
29938;SDS011;16799;50.844;5.304;2022-11-20T04:32:28;62.27;;;28.60;;
29938;SDS011;16799;50.844;5.304;2022-11-20T04:34:54;60.10;;;28.37;;
29938;SDS011;16799;50.844;5.304;2022-11-20T04:37:19;62.23;;;27.67;;
29938;SDS011;16799;50.844;5.304;2022-11-20T04:39:45;62.13;;;26.80;;
29938;SDS011;16799;50.844;5.304;2022-11-20T04:42:11;56.03;;;26.67;;
29938;SDS011;16799;50.844;5.304;2022-11-20T04:44:55;61.70;;;28.23;;
29938;SDS011;16799;50.844;5.304;2022-11-20T04:47:21;65.10;;;29.00;;
29938;SDS011;16799;50.844;5.304;2022-11-20T04:49:47;61.37;;;29.03;;
29938;SDS011;16799;50.844;5.304;2022-11-20T04:52:12;58.40;;;25.07;;
29938;SDS011;16799;50.844;5.304;2022-11-20T04:54:38;79.50;;;30.90;;
29938;SDS011;16799;50.844;5.304;2022-11-20T04:57:04;73.47;;;29.53;;
29938;SDS011;16799;50.844;5.304;2022-11-20T04:59:29;57.93;;;28.13;;
29938;SDS011;16799;50.844;5.304;2022-11-20T05:01:55;59.13;;;29.33;;
29938;SDS011;16799;50.844;5.304;2022-11-20T05:04:20;68.83;;;29.57;;
29938;SDS011;16799;50.844;5.304;2022-11-20T05:06:46;61.67;;;28.47;;
29938;SDS011;16799;50.844;5.304;2022-11-20T05:09:12;64.97;;;31.33;;
29938;SDS011;16799;50.844;5.304;2022-11-20T05:11:38;61.90;;;28.77;;
29938;SDS011;16799;50.844;5.304;2022-11-20T05:14:04;64.37;;;31.53;;
29938;SDS011;16799;50.844;5.304;2022-11-20T05:16:29;62.93;;;26.90;;
29938;SDS011;16799;50.844;5.304;2022-11-20T05:18:55;54.77;;;29.37;;
29938;SDS011;16799;50.844;5.304;2022-11-20T05:21:21;58.20;;;29.40;;
29938;SDS011;16799;50.844;5.304;2022-11-20T05:23:48;64.70;;;31.20;;
29938;SDS011;16799;50.844;5.304;2022-11-20T05:26:15;63.93;;;29.63;;
29938;SDS011;16799;50.844;5.304;2022-11-20T05:28:46;65.27;;;29.63;;
29938;SDS011;16799;50.844;5.304;2022-11-20T05:31:14;54.83;;;27.13;;
29938;SDS011;16799;50.844;5.304;2022-11-20T05:33:42;71.20;;;30.50;;
29938;SDS011;16799;50.844;5.304;2022-11-20T05:36:09;56.53;;;29.20;;
29938;SDS011;16799;50.844;5.304;2022-11-20T05:38:35;66.50;;;28.77;;
29938;SDS011;16799;50.844;5.304;2022-11-20T05:41:09;61.63;;;26.00;;
29938;SDS011;16799;50.844;5.304;2022-11-20T05:43:39;64.03;;;27.00;;
29938;SDS011;16799;50.844;5.304;2022-11-20T05:46:07;59.80;;;26.20;;
29938;SDS011;16799;50.844;5.304;2022-11-20T05:48:34;61.83;;;28.27;;
29938;SDS011;16799;50.844;5.304;2022-11-20T05:51:01;58.40;;;29.60;;
29938;SDS011;16799;50.844;5.304;2022-11-20T05:53:29;70.37;;;31.50;;
29938;SDS011;16799;50.844;5.304;2022-11-20T05:56:01;62.03;;;27.70;;
29938;SDS011;16799;50.844;5.304;2022-11-20T05:58:30;53.93;;;25.53;;
29938;SDS011;16799;50.844;5.304;2022-11-20T06:01:06;65.23;;;29.13;;
29938;SDS011;16799;50.844;5.304;2022-11-20T06:03:32;75.13;;;29.53;;
29938;SDS011;16799;50.844;5.304;2022-11-20T06:06:01;62.53;;;26.33;;
29938;SDS011;16799;50.844;5.304;2022-11-20T06:08:27;60.80;;;27.37;;
29938;SDS011;16799;50.844;5.304;2022-11-20T06:10:53;70.47;;;31.40;;
29938;SDS011;16799;50.844;5.304;2022-11-20T06:13:19;68.73;;;27.63;;
29938;SDS011;16799;50.844;5.304;2022-11-20T06:15:48;59.13;;;27.67;;
29938;SDS011;16799;50.844;5.304;2022-11-20T06:18:15;59.60;;;28.03;;
29938;SDS011;16799;50.844;5.304;2022-11-20T06:20:40;53.37;;;26.70;;
29938;SDS011;16799;50.844;5.304;2022-11-20T06:23:06;64.57;;;27.70;;
29938;SDS011;16799;50.844;5.304;2022-11-20T06:25:32;60.23;;;26.10;;
29938;SDS011;16799;50.844;5.304;2022-11-20T06:27:57;59.77;;;29.73;;
29938;SDS011;16799;50.844;5.304;2022-11-20T06:30:23;65.00;;;28.93;;
29938;SDS011;16799;50.844;5.304;2022-11-20T06:32:49;59.13;;;27.57;;
29938;SDS011;16799;50.844;5.304;2022-11-20T06:35:14;71.03;;;27.93;;
29938;SDS011;16799;50.844;5.304;2022-11-20T06:37:40;63.83;;;26.50;;
29938;SDS011;16799;50.844;5.304;2022-11-20T06:40:05;57.20;;;27.90;;
29938;SDS011;16799;50.844;5.304;2022-11-20T06:42:32;67.30;;;29.03;;
29938;SDS011;16799;50.844;5.304;2022-11-20T06:44:57;60.40;;;27.17;;
29938;SDS011;16799;50.844;5.304;2022-11-20T06:47:23;56.30;;;27.87;;
29938;SDS011;16799;50.844;5.304;2022-11-20T06:49:49;65.17;;;25.60;;
29938;SDS011;16799;50.844;5.304;2022-11-20T06:52:14;61.63;;;28.20;;
29938;SDS011;16799;50.844;5.304;2022-11-20T06:54:40;53.67;;;26.20;;
29938;SDS011;16799;50.844;5.304;2022-11-20T06:57:05;60.17;;;27.27;;
29938;SDS011;16799;50.844;5.304;2022-11-20T06:59:31;54.17;;;25.97;;
29938;SDS011;16799;50.844;5.304;2022-11-20T07:01:56;65.57;;;29.90;;
29938;SDS011;16799;50.844;5.304;2022-11-20T07:04:22;60.63;;;26.40;;
29938;SDS011;16799;50.844;5.304;2022-11-20T07:06:48;61.77;;;30.10;;
29938;SDS011;16799;50.844;5.304;2022-11-20T07:09:13;60.77;;;27.90;;
29938;SDS011;16799;50.844;5.304;2022-11-20T07:11:39;56.77;;;29.50;;
29938;SDS011;16799;50.844;5.304;2022-11-20T07:14:05;59.83;;;30.40;;
29938;SDS011;16799;50.844;5.304;2022-11-20T07:16:30;64.90;;;30.27;;
29938;SDS011;16799;50.844;5.304;2022-11-20T07:18:56;59.93;;;29.23;;
29938;SDS011;16799;50.844;5.304;2022-11-20T07:21:22;59.67;;;26.33;;
29938;SDS011;16799;50.844;5.304;2022-11-20T07:23:47;58.43;;;29.53;;
29938;SDS011;16799;50.844;5.304;2022-11-20T07:26:13;50.23;;;26.77;;
29938;SDS011;16799;50.844;5.304;2022-11-20T07:28:38;54.23;;;27.73;;
29938;SDS011;16799;50.844;5.304;2022-11-20T07:31:04;62.43;;;28.73;;
29938;SDS011;16799;50.844;5.304;2022-11-20T07:33:31;71.30;;;30.60;;
29938;SDS011;16799;50.844;5.304;2022-11-20T07:36:00;62.67;;;27.77;;
29938;SDS011;16799;50.844;5.304;2022-11-20T07:38:26;50.70;;;25.17;;
29938;SDS011;16799;50.844;5.304;2022-11-20T07:40:55;73.93;;;31.57;;
29938;SDS011;16799;50.844;5.304;2022-11-20T07:43:22;78.03;;;29.40;;
29938;SDS011;16799;50.844;5.304;2022-11-20T07:45:48;65.47;;;31.07;;
29938;SDS011;16799;50.844;5.304;2022-11-20T07:48:14;62.07;;;26.97;;
29938;SDS011;16799;50.844;5.304;2022-11-20T07:50:39;61.23;;;29.77;;
29938;SDS011;16799;50.844;5.304;2022-11-20T07:53:05;68.70;;;29.00;;
29938;SDS011;16799;50.844;5.304;2022-11-20T07:55:31;59.63;;;29.33;;
29938;SDS011;16799;50.844;5.304;2022-11-20T07:57:57;60.87;;;28.53;;
29938;SDS011;16799;50.844;5.304;2022-11-20T08:00:23;74.63;;;28.57;;
29938;SDS011;16799;50.844;5.304;2022-11-20T08:02:50;71.97;;;30.70;;
29938;SDS011;16799;50.844;5.304;2022-11-20T08:05:15;72.37;;;29.97;;
29938;SDS011;16799;50.844;5.304;2022-11-20T08:07:42;75.43;;;29.40;;
29938;SDS011;16799;50.844;5.304;2022-11-20T08:10:09;63.40;;;28.70;;
29938;SDS011;16799;50.844;5.304;2022-11-20T08:12:36;63.37;;;27.63;;
29938;SDS011;16799;50.844;5.304;2022-11-20T08:15:27;66.87;;;28.90;;
29938;SDS011;16799;50.844;5.304;2022-11-20T08:17:58;56.43;;;27.07;;
29938;SDS011;16799;50.844;5.304;2022-11-20T08:20:29;56.50;;;29.27;;
29938;SDS011;16799;50.844;5.304;2022-11-20T08:23:01;62.03;;;27.30;;
29938;SDS011;16799;50.844;5.304;2022-11-20T08:25:29;65.00;;;29.30;;
29938;SDS011;16799;50.844;5.304;2022-11-20T08:27:58;52.67;;;24.97;;
29938;SDS011;16799;50.844;5.304;2022-11-20T08:30:25;56.03;;;27.10;;
29938;SDS011;16799;50.844;5.304;2022-11-20T08:32:50;54.03;;;23.93;;
29938;SDS011;16799;50.844;5.304;2022-11-20T08:35:16;57.60;;;28.13;;
29938;SDS011;16799;50.844;5.304;2022-11-20T08:37:45;63.97;;;27.43;;
29938;SDS011;16799;50.844;5.304;2022-11-20T08:40:11;60.77;;;28.77;;
29938;SDS011;16799;50.844;5.304;2022-11-20T08:42:45;54.30;;;25.80;;
29938;SDS011;16799;50.844;5.304;2022-11-20T08:45:11;53.13;;;27.63;;
29938;SDS011;16799;50.844;5.304;2022-11-20T08:47:37;62.40;;;28.43;;
29938;SDS011;16799;50.844;5.304;2022-11-20T08:50:02;60.63;;;26.90;;
29938;SDS011;16799;50.844;5.304;2022-11-20T08:52:28;70.23;;;26.50;;
29938;SDS011;16799;50.844;5.304;2022-11-20T08:54:54;58.33;;;25.43;;
29938;SDS011;16799;50.844;5.304;2022-11-20T08:57:19;67.27;;;27.17;;
29938;SDS011;16799;50.844;5.304;2022-11-20T08:59:45;68.00;;;28.23;;
29938;SDS011;16799;50.844;5.304;2022-11-20T09:02:11;71.27;;;24.33;;
29938;SDS011;16799;50.844;5.304;2022-11-20T09:04:37;62.03;;;24.67;;
29938;SDS011;16799;50.844;5.304;2022-11-20T09:07:02;64.60;;;27.87;;
29938;SDS011;16799;50.844;5.304;2022-11-20T09:09:28;56.70;;;24.30;;
29938;SDS011;16799;50.844;5.304;2022-11-20T09:11:54;59.47;;;27.10;;
29938;SDS011;16799;50.844;5.304;2022-11-20T09:14:19;96.57;;;29.10;;
29938;SDS011;16799;50.844;5.304;2022-11-20T09:16:46;164.87;;;60.30;;
29938;SDS011;16799;50.844;5.304;2022-11-20T09:19:11;146.23;;;53.80;;
29938;SDS011;16799;50.844;5.304;2022-11-20T09:21:37;84.37;;;32.73;;
29938;SDS011;16799;50.844;5.304;2022-11-20T09:24:04;71.07;;;28.43;;
29938;SDS011;16799;50.844;5.304;2022-11-20T09:26:30;67.43;;;28.87;;
29938;SDS011;16799;50.844;5.304;2022-11-20T09:28:55;80.20;;;27.83;;
29938;SDS011;16799;50.844;5.304;2022-11-20T09:31:22;90.00;;;27.80;;
29938;SDS011;16799;50.844;5.304;2022-11-20T09:33:49;137.60;;;50.60;;
29938;SDS011;16799;50.844;5.304;2022-11-20T09:36:15;82.30;;;31.07;;
29938;SDS011;16799;50.844;5.304;2022-11-20T09:38:41;84.90;;;32.70;;
29938;SDS011;16799;50.844;5.304;2022-11-20T09:41:10;74.27;;;31.50;;
29938;SDS011;16799;50.844;5.304;2022-11-20T09:46:37;99.83;;;37.87;;
29938;SDS011;16799;50.844;5.304;2022-11-20T09:52:22;68.40;;;31.20;;
29938;SDS011;16799;50.844;5.304;2022-11-20T09:55:10;70.60;;;30.67;;
29938;SDS011;16799;50.844;5.304;2022-11-20T09:57:38;85.93;;;29.17;;
29938;SDS011;16799;50.844;5.304;2022-11-20T10:00:09;70.90;;;31.47;;
29938;SDS011;16799;50.844;5.304;2022-11-20T10:02:42;67.73;;;26.27;;
29938;SDS011;16799;50.844;5.304;2022-11-20T10:05:33;73.80;;;28.30;;
29938;SDS011;16799;50.844;5.304;2022-11-20T10:08:21;86.87;;;31.47;;
29938;SDS011;16799;50.844;5.304;2022-11-20T10:14:17;77.33;;;26.90;;
29938;SDS011;16799;50.844;5.304;2022-11-20T10:22:44;73.60;;;31.33;;
29938;SDS011;16799;50.844;5.304;2022-11-20T10:31:03;84.40;;;37.20;;
29938;SDS011;16799;50.844;5.304;2022-11-20T10:33:39;66.90;;;29.10;;
29938;SDS011;16799;50.844;5.304;2022-11-20T10:36:17;63.90;;;26.70;;
29938;SDS011;16799;50.844;5.304;2022-11-20T10:38:55;63.13;;;26.70;;
29938;SDS011;16799;50.844;5.304;2022-11-20T10:41:26;58.03;;;25.07;;
29938;SDS011;16799;50.844;5.304;2022-11-20T10:44:09;63.43;;;26.80;;
29938;SDS011;16799;50.844;5.304;2022-11-20T10:47:11;59.13;;;24.20;;
29938;SDS011;16799;50.844;5.304;2022-11-20T10:49:42;54.67;;;23.70;;
29938;SDS011;16799;50.844;5.304;2022-11-20T11:00:10;62.93;;;24.40;;
29938;SDS011;16799;50.844;5.304;2022-11-20T11:02:43;60.40;;;23.43;;
29938;SDS011;16799;50.844;5.304;2022-11-20T11:07:46;44.07;;;21.43;;
29938;SDS011;16799;50.844;5.304;2022-11-20T11:10:21;55.70;;;21.27;;
29938;SDS011;16799;50.844;5.304;2022-11-20T11:12:57;39.20;;;19.97;;
29938;SDS011;16799;50.844;5.304;2022-11-20T11:15:35;44.30;;;22.40;;
29938;SDS011;16799;50.844;5.304;2022-11-20T11:18:09;52.40;;;26.57;;
29938;SDS011;16799;50.844;5.304;2022-11-20T11:20:35;56.13;;;25.23;;
29938;SDS011;16799;50.844;5.304;2022-11-20T11:23:01;40.90;;;20.87;;
29938;SDS011;16799;50.844;5.304;2022-11-20T11:25:33;38.80;;;19.57;;
29938;SDS011;16799;50.844;5.304;2022-11-20T11:28:18;32.23;;;18.73;;
29938;SDS011;16799;50.844;5.304;2022-11-20T11:30:46;33.07;;;19.60;;
29938;SDS011;16799;50.844;5.304;2022-11-20T11:33:19;39.90;;;19.50;;
29938;SDS011;16799;50.844;5.304;2022-11-20T11:35:54;31.77;;;17.93;;
29938;SDS011;16799;50.844;5.304;2022-11-20T11:38:27;33.83;;;18.10;;
29938;SDS011;16799;50.844;5.304;2022-11-20T11:40:59;26.50;;;15.70;;
29938;SDS011;16799;50.844;5.304;2022-11-20T11:43:27;26.30;;;15.73;;
29938;SDS011;16799;50.844;5.304;2022-11-20T11:49:28;24.53;;;14.50;;
29938;SDS011;16799;50.844;5.304;2022-11-20T11:57:00;10.43;;;9.53;;
29938;SDS011;16799;50.844;5.304;2022-11-20T12:04:55;9.50;;;5.67;;
29938;SDS011;16799;50.844;5.304;2022-11-20T12:07:45;9.73;;;5.87;;
29938;SDS011;16799;50.844;5.304;2022-11-20T12:13:26;4.63;;;4.27;;
29938;SDS011;16799;50.844;5.304;2022-11-20T12:16:12;7.57;;;5.10;;
29938;SDS011;16799;50.844;5.304;2022-11-20T12:18:40;7.73;;;4.20;;
29938;SDS011;16799;50.844;5.304;2022-11-20T12:21:12;11.57;;;4.57;;
29938;SDS011;16799;50.844;5.304;2022-11-20T12:35:14;3.57;;;3.37;;
29938;SDS011;16799;50.844;5.304;2022-11-20T12:38:11;7.07;;;3.50;;
29938;SDS011;16799;50.844;5.304;2022-11-20T12:43:47;4.37;;;3.13;;
29938;SDS011;16799;50.844;5.304;2022-11-20T12:52:51;4.40;;;2.93;;
29938;SDS011;16799;50.844;5.304;2022-11-20T12:58:01;4.13;;;3.43;;
29938;SDS011;16799;50.844;5.304;2022-11-20T13:00:59;14.50;;;2.60;;
29938;SDS011;16799;50.844;5.304;2022-11-20T13:03:34;4.40;;;2.37;;
29938;SDS011;16799;50.844;5.304;2022-11-20T13:06:16;12.43;;;7.57;;
29938;SDS011;16799;50.844;5.304;2022-11-20T13:08:45;5.10;;;2.00;;
29938;SDS011;16799;50.844;5.304;2022-11-20T13:13:59;5.40;;;2.30;;
29938;SDS011;16799;50.844;5.304;2022-11-20T13:19:36;8.10;;;1.90;;
29938;SDS011;16799;50.844;5.304;2022-11-20T13:22:02;2.23;;;2.03;;
29938;SDS011;16799;50.844;5.304;2022-11-20T13:24:29;3.97;;;1.80;;
29938;SDS011;16799;50.844;5.304;2022-11-20T13:27:03;9.67;;;2.30;;
29938;SDS011;16799;50.844;5.304;2022-11-20T13:29:29;3.60;;;2.20;;
29938;SDS011;16799;50.844;5.304;2022-11-20T13:32:02;5.70;;;3.30;;
29938;SDS011;16799;50.844;5.304;2022-11-20T13:34:38;3.50;;;2.37;;
29938;SDS011;16799;50.844;5.304;2022-11-20T13:37:24;2.30;;;1.60;;
29938;SDS011;16799;50.844;5.304;2022-11-20T13:42:44;2.00;;;1.80;;
29938;SDS011;16799;50.844;5.304;2022-11-20T13:47:52;8.70;;;2.43;;
29938;SDS011;16799;50.844;5.304;2022-11-20T13:50:19;4.17;;;2.53;;
29938;SDS011;16799;50.844;5.304;2022-11-20T13:53:07;8.13;;;3.20;;
29938;SDS011;16799;50.844;5.304;2022-11-20T13:58:36;8.20;;;3.40;;
29938;SDS011;16799;50.844;5.304;2022-11-20T14:01:24;12.70;;;5.00;;
29938;SDS011;16799;50.844;5.304;2022-11-20T14:03:54;5.33;;;3.33;;
29938;SDS011;16799;50.844;5.304;2022-11-20T14:06:26;7.60;;;4.50;;
29938;SDS011;16799;50.844;5.304;2022-11-20T14:08:57;9.50;;;3.40;;
29938;SDS011;16799;50.844;5.304;2022-11-20T14:11:24;5.27;;;3.37;;
29938;SDS011;16799;50.844;5.304;2022-11-20T14:14:15;9.20;;;4.17;;
29938;SDS011;16799;50.844;5.304;2022-11-20T14:16:42;21.80;;;9.90;;
29938;SDS011;16799;50.844;5.304;2022-11-20T14:19:30;9.73;;;3.63;;
29938;SDS011;16799;50.844;5.304;2022-11-20T14:22:09;12.17;;;4.27;;
29938;SDS011;16799;50.844;5.304;2022-11-20T14:24:42;15.60;;;5.43;;
29938;SDS011;16799;50.844;5.304;2022-11-20T14:27:14;6.27;;;5.33;;
29938;SDS011;16799;50.844;5.304;2022-11-20T14:29:45;6.57;;;4.70;;
29938;SDS011;16799;50.844;5.304;2022-11-20T14:32:19;4.00;;;2.90;;
29938;SDS011;16799;50.844;5.304;2022-11-20T14:34:48;4.93;;;3.80;;
29938;SDS011;16799;50.844;5.304;2022-11-20T14:37:23;6.03;;;5.40;;
29938;SDS011;16799;50.844;5.304;2022-11-20T14:39:54;6.57;;;3.40;;
29938;SDS011;16799;50.844;5.304;2022-11-20T14:42:24;7.13;;;4.23;;
29938;SDS011;16799;50.844;5.304;2022-11-20T14:44:52;3.43;;;3.13;;
29938;SDS011;16799;50.844;5.304;2022-11-20T14:47:21;4.73;;;3.60;;
29938;SDS011;16799;50.844;5.304;2022-11-20T14:49:51;3.80;;;3.60;;
29938;SDS011;16799;50.844;5.304;2022-11-20T14:52:20;6.37;;;4.93;;
29938;SDS011;16799;50.844;5.304;2022-11-20T14:54:54;7.33;;;4.70;;
29938;SDS011;16799;50.844;5.304;2022-11-20T14:57:33;5.53;;;3.20;;
29938;SDS011;16799;50.844;5.304;2022-11-20T15:00:07;7.83;;;4.30;;
29938;SDS011;16799;50.844;5.304;2022-11-20T15:02:41;9.87;;;5.97;;
29938;SDS011;16799;50.844;5.304;2022-11-20T15:05:07;4.97;;;4.47;;
29938;SDS011;16799;50.844;5.304;2022-11-20T15:08:19;5.37;;;4.90;;
29938;SDS011;16799;50.844;5.304;2022-11-20T15:10:33;8.57;;;5.13;;
29938;SDS011;16799;50.844;5.304;2022-11-20T15:13:01;16.03;;;11.10;;
29938;SDS011;16799;50.844;5.304;2022-11-20T15:18:01;4.97;;;4.67;;
29938;SDS011;16799;50.844;5.304;2022-11-20T15:20:28;6.53;;;5.90;;
29938;SDS011;16799;50.844;5.304;2022-11-20T15:22:57;6.23;;;5.60;;
29938;SDS011;16799;50.844;5.304;2022-11-20T15:25:22;4.90;;;4.47;;
29938;SDS011;16799;50.844;5.304;2022-11-20T15:27:50;12.27;;;7.90;;
29938;SDS011;16799;50.844;5.304;2022-11-20T15:30:20;12.37;;;10.80;;
29938;SDS011;16799;50.844;5.304;2022-11-20T15:32:46;6.00;;;5.37;;
29938;SDS011;16799;50.844;5.304;2022-11-20T15:35:12;3.63;;;3.43;;
29938;SDS011;16799;50.844;5.304;2022-11-20T15:37:39;5.50;;;5.03;;
29938;SDS011;16799;50.844;5.304;2022-11-20T15:40:05;9.30;;;2.30;;
29938;SDS011;16799;50.844;5.304;2022-11-20T15:42:32;5.77;;;5.40;;
29938;SDS011;16799;50.844;5.304;2022-11-20T15:44:58;2.97;;;2.77;;
29938;SDS011;16799;50.844;5.304;2022-11-20T15:47:27;6.83;;;3.60;;
29938;SDS011;16799;50.844;5.304;2022-11-20T15:49:56;4.87;;;1.90;;
29938;SDS011;16799;50.844;5.304;2022-11-20T15:52:22;2.60;;;2.20;;
29938;SDS011;16799;50.844;5.304;2022-11-20T15:54:47;2.90;;;2.70;;
29938;SDS011;16799;50.844;5.304;2022-11-20T15:57:13;6.03;;;4.37;;
29938;SDS011;16799;50.844;5.304;2022-11-20T15:59:39;2.57;;;2.37;;
29938;SDS011;16799;50.844;5.304;2022-11-20T16:02:10;1.43;;;1.33;;
29938;SDS011;16799;50.844;5.304;2022-11-20T16:04:37;3.10;;;2.90;;
29938;SDS011;16799;50.844;5.304;2022-11-20T16:07:03;3.53;;;1.97;;
29938;SDS011;16799;50.844;5.304;2022-11-20T16:09:28;7.47;;;2.70;;
29938;SDS011;16799;50.844;5.304;2022-11-20T16:11:54;3.40;;;2.40;;
29938;SDS011;16799;50.844;5.304;2022-11-20T16:14:20;4.93;;;2.93;;
29938;SDS011;16799;50.844;5.304;2022-11-20T16:17:04;6.50;;;2.97;;
29938;SDS011;16799;50.844;5.304;2022-11-20T16:19:30;4.83;;;2.57;;
29938;SDS011;16799;50.844;5.304;2022-11-20T16:21:57;3.97;;;2.73;;